Back to Top

Language: 

Current Local METAR Station Weather Reports...

Local METAR Reports

Local METAR Reports

 

EGCN - Doncaster Sheffield Airport, United Kingdom
Distance from station: E 20mi, 32km
Updated: Sun, 16-Dec-2018 7:50am GMT
Clear
Clear
 Wind from S
Wind: S 8 mph , 13 km/h
Temperature: 3°C
Wind Chill: -1°C
Dew Point: 3°C
Humidity: 100%
Barometer: 1004 hPa
Summary: Clear
Visibility: greater than 7 miles , 10 km
2018/12/16 07:50 EGCN 160750Z 18007KT CAVOK 03/03 Q1004
EGNM - Leeds Bradford International, United Kingdom
Distance from station: NNW 24mi, 39km
Updated: Sun, 16-Dec-2018 7:50am GMT
Few Clouds
Few Clouds
 Wind from SW
Wind: SW 5 mph , 7 km/h
Temperature: 3°C
Wind Chill: 1°C
Dew Point: 2°C
Humidity: 93%
Barometer: 1001 hPa
Clouds: Few Clouds
Visibility: 6 miles , 10 km
Cloud details: Few Clouds 1128 m
2018/12/16 07:50 EGNM 160750Z 22004KT 170V250 9999 FEW037 03/02 Q1001
 
EGCC - Manchester International, United Kingdom
Distance from station: WSW 35mi, 56km
Updated: Sun, 16-Dec-2018 7:50am GMT
Clear
Clear
 Wind from S
Wind: S 6 mph , 9 km/h
Temperature: 4°C
Wind Chill: 2°C
Dew Point: 2°C
Humidity: 87%
Barometer: 1003 hPa
Clouds: Clear
Visibility: 6 miles , 10 km
2018/12/16 07:50 EGCC 160750Z AUTO 18005KT 140V200 9999 NCD 04/02 Q1003 NOSIG
EGXU - Linton-On-Ouse RAF, United Kingdom
Distance from station: NNE 37mi, 60km
Updated: Sun, 16-Dec-2018 7:50am GMT
Clear
Clear
 Wind from S
Wind: S 8 mph , 13 km/h
Temperature: 3°C
Wind Chill: -1°C
Dew Point: 2°C
Humidity: 93%
Barometer: 1002 hPa
Clouds: Clear
Visibility: 6 miles , 10 km
2018/12/16 07:50 EGXU 160750Z AUTO 19007KT 9999 // NCD 03/02 Q1002
 
EGXP - Scampton RAF, United Kingdom
Distance from station: ESE 41mi, 66km
Updated: Sun, 16-Dec-2018 7:50am GMT
Clear
Clear
 Wind from SW
Wind: SW 12 mph , 19 km/h
Temperature: 3°C
Wind Chill: -2°C
Dew Point: 2°C
Humidity: 93%
Barometer: 1003 hPa
Clouds: Clear
Visibility: 6 miles , 10 km
2018/12/16 07:50 EGXP 160750Z AUTO 22010KT 9999 // NCD 03/02 Q1003
EGNJ - Humberside Airport, United Kingdom
Distance from station: E 46mi, 74km
Updated: Sun, 16-Dec-2018 7:50am GMT
Few Clouds
Few Clouds
 Wind from SSW
Wind: SSW 14 mph , 22 km/h
Temperature: 3°C
Wind Chill: -2°C
Dew Point: 2°C
Humidity: 93%
Barometer: 1003 hPa
Clouds: Few Clouds
Visibility: 6 miles , 10 km
Cloud details: Few Clouds 975 m
2018/12/16 07:50 EGNJ 160750Z 20012KT 9999 FEW032 03/02 Q1003
 
EGXW - Waddington RAF, United Kingdom
Distance from station: ESE 46mi, 74km
Updated: Sun, 16-Dec-2018 7:50am GMT
Clear
Clear
 Wind from SSW
Wind: SSW 9 mph , 15 km/h
Temperature: 4°C
Wind Chill: 1°C
Dew Point: 3°C
Humidity: 93%
Barometer: 1004 hPa
Clouds: Clear
Visibility: 6 miles , 10 km
2018/12/16 07:50 EGXW 160750Z AUTO 21008KT 9999 NCD 04/03 Q1004
EGXZ - Topcliffe RAF, United Kingdom
Distance from station: N 46mi, 75km
Updated: Sun, 16-Dec-2018 7:50am GMT
Clear
Clear
 Wind from S
Wind: S 10 mph , 17 km/h
Temperature: 4°C
Wind Chill: 0°C
Dew Point: 2°C
Humidity: 87%
Barometer: 1001 hPa
Clouds: Clear
Visibility: 6 miles , 10 km
2018/12/16 07:50 EGXZ 160750Z AUTO 18009KT 9999 NCD 04/02 Q1001 RERA
 
EGXV - Leconfield, United Kingdom
Distance from station: ENE 48mi, 77km
Updated: Sun, 16-Dec-2018 7:50am GMT
Clear
Clear
 Wind from SSW
Wind: SSW 9 mph , 15 km/h
Temperature: 4°C
Wind Chill: 1°C
Dew Point: 2°C
Humidity: 87%
Barometer: 1002 hPa
Clouds: Clear
Visibility: 6 miles , 10 km
2018/12/16 07:50 EGXV 160750Z AUTO 21008KT 9999 NCD 04/02 Q1002
EGNX - East Midlands, United Kingdom
Distance from station: S 50mi, 80km
Updated: Sun, 16-Dec-2018 7:50am GMT
Clear
Clear
 Wind from SW
Wind: SW 10 mph , 17 km/h
Temperature: 4°C
Wind Chill: 0°C
Dew Point: 3°C
Humidity: 93%
Barometer: 1004 hPa
Summary: Clear
Visibility: greater than 7 miles , 10 km
2018/12/16 07:50 EGNX 160750Z 22009KT CAVOK 04/03 Q1004

Metar display script from Saratoga-Weather.org

Data updates at regular intervals.